Time;durP1;ratioP1;P1;durP2;ratioP2;P2;SDS_P1;SDS_P2;PMS_P1;PMS_P2;Temp;Humidity;BMP_temperature;BMP_pressure;BME280_temperature;BME280_humidity;BME280_pressure;Samples;Min_cycle;Max_cycle;Signal;HPM_P1;HPM_P2
2021/01/03 00:00:19;;;;;;;10.17;5.37;;;;;;;0.29;77.16;98374.09;5023780;28;20140;-81
2021/01/03 00:02:47;;;;;;;11.60;5.50;;;;;;;0.27;77.46;98368.06;5021795;28;20053;-82
2021/01/03 00:05:15;;;;;;;10.13;5.20;;;;;;;0.28;77.13;98369.72;5028074;28;20049;-81
2021/01/03 00:07:41;;;;;;;9.23;5.03;;;;;;;0.29;77.17;98362.56;5020833;28;20112;-81
2021/01/03 00:10:10;;;;;;;10.13;5.50;;;;;;;0.25;77.53;98356.66;5030614;28;20386;-81
2021/01/03 00:12:38;;;;;;;10.23;5.30;;;;;;;0.22;77.34;98348.91;5026741;28;20535;-80
2021/01/03 00:15:07;;;;;;;9.27;5.20;;;;;;;0.27;77.36;98359.19;5024937;28;20375;-81
2021/01/03 00:17:33;;;;;;;10.17;4.97;;;;;;;-0.07;77.87;98336.34;5028999;28;20091;-81
2021/01/03 00:20:00;;;;;;;8.80;4.87;;;;;;;-0.10;77.92;98320.59;5023307;28;20643;-81
2021/01/03 00:22:28;;;;;;;10.47;5.40;;;;;;;0.06;77.71;98333.44;5022284;28;20042;-81
2021/01/03 00:24:55;;;;;;;10.43;5.50;;;;;;;0.02;77.88;98331.19;5030766;28;20060;-81
2021/01/03 00:27:21;;;;;;;10.63;4.60;;;;;;;0.13;77.67;98355.09;5029315;28;20405;-82
2021/01/03 00:29:49;;;;;;;7.47;5.10;;;;;;;0.10;77.32;98356.19;5027923;28;20498;-81
2021/01/03 00:32:21;;;;;;;11.40;5.87;;;;;;;0.00;77.39;98325.97;5023340;28;20056;-81
2021/01/03 00:34:47;;;;;;;11.27;6.00;;;;;;;-0.08;77.27;98317.78;5025321;28;20159;-81
2021/01/03 00:37:13;;;;;;;8.10;4.77;;;;;;;0.14;77.67;98359.47;5022106;28;20053;-81
2021/01/03 00:39:40;;;;;;;8.17;4.60;;;;;;;-0.03;77.34;98324.41;5029717;28;20490;-81
2021/01/03 00:42:07;;;;;;;10.47;5.23;;;;;;;-0.08;77.15;98331.97;5031063;28;20050;-81
2021/01/03 00:44:33;;;;;;;8.60;5.03;;;;;;;0.09;78.12;98345.66;5029576;28;20408;-81
2021/01/03 00:47:00;;;;;;;8.10;4.77;;;;;;;0.04;77.53;98346.06;5030529;28;20072;-81
2021/01/03 00:49:27;;;;;;;7.33;4.30;;;;;;;0.06;77.66;98340.59;5030508;28;20049;-82
2021/01/03 00:51:53;;;;;;;12.23;5.90;;;;;;;0.19;77.55;98353.69;5030789;28;20464;-81
2021/01/03 00:54:20;;;;;;;10.77;4.67;;;;;;;0.02;77.22;98344.53;5030570;28;20379;-81
2021/01/03 00:56:46;;;;;;;10.17;5.33;;;;;;;0.01;77.98;98327.63;5030680;28;20103;-81
2021/01/03 00:59:12;;;;;;;8.90;5.23;;;;;;;0.11;78.42;98360.56;5030402;28;20485;-81
2021/01/03 01:01:39;;;;;;;12.43;5.23;;;;;;;-0.05;77.45;98331.69;5026745;28;20132;-81
2021/01/03 01:04:06;;;;;;;8.60;4.90;;;;;;;0.04;77.92;98337.22;5026226;28;20065;-81
2021/01/03 01:06:33;;;;;;;8.93;4.90;;;;;;;0.05;77.53;98346.94;5030313;28;20132;-81
2021/01/03 01:08:59;;;;;;;10.43;5.83;;;;;;;-0.05;77.72;98317.50;5031111;28;20136;-81
2021/01/03 01:11:26;;;;;;;9.57;5.07;;;;;;;0.11;77.40;98347.22;5030341;28;20133;-81
2021/01/03 01:13:52;;;;;;;8.93;5.40;;;;;;;0.14;77.88;98346.94;5030193;28;20060;-81
2021/01/03 01:16:19;;;;;;;9.13;5.03;;;;;;;0.08;77.58;98334.13;5030181;28;20064;-81
2021/01/03 01:18:45;;;;;;;9.83;5.33;;;;;;;-0.07;77.56;98322.16;5030876;28;20049;-81
2021/01/03 01:21:12;;;;;;;10.13;5.10;;;;;;;0.11;77.82;98354.41;5029795;28;20049;-82
2021/01/03 01:23:38;;;;;;;10.87;6.47;;;;;;;0.14;77.63;98341.59;5030862;28;20050;-82
2021/01/03 01:26:05;;;;;;;10.53;5.27;;;;;;;0.05;77.50;98334.41;5023629;28;20050;-81
2021/01/03 01:28:31;;;;;;;7.90;5.20;;;;;;;-0.08;77.96;98334.66;5030347;28;20041;-81
2021/01/03 01:30:58;;;;;;;9.97;5.77;;;;;;;0.03;77.93;98359.56;5030246;28;20072;-81
2021/01/03 01:33:25;;;;;;;11.33;6.00;;;;;;;0.01;77.91;98337.50;5030283;28;20042;-81
2021/01/03 01:35:51;;;;;;;8.77;5.27;;;;;;;-0.12;78.48;98335.06;5030218;28;20048;-81
2021/01/03 01:38:19;;;;;;;11.17;5.47;;;;;;;0.06;78.12;98359.28;5030074;28;20429;-81
2021/01/03 01:40:45;;;;;;;9.93;5.43;;;;;;;0.03;78.28;98352.41;5030735;28;20486;-81
2021/01/03 01:43:14;;;;;;;9.60;5.37;;;;;;;-0.03;78.70;98342.25;5030350;28;20049;-81
2021/01/03 01:45:42;;;;;;;9.13;5.83;;;;;;;0.05;79.20;98354.94;5029989;28;20081;-81
2021/01/03 01:48:13;;;;;;;9.57;5.47;;;;;;;0.03;78.65;98365.78;5029891;28;20045;-82
2021/01/03 01:50:41;;;;;;;8.60;5.60;;;;;;;-0.10;79.20;98339.28;5029420;28;20054;-81
2021/01/03 01:53:18;;;;;;;9.47;5.10;;;;;;;-0.09;79.98;98359.69;5030162;28;20057;-81
2021/01/03 01:55:53;;;;;;;10.57;5.60;;;;;;;-0.34;80.00;98328.97;5030709;28;20056;-81
2021/01/03 01:58:32;;;;;;;9.60;5.60;;;;;;;-0.15;80.75;98340.69;5033975;28;20119;-81
2021/01/03 02:01:05;;;;;;;10.00;5.75;;;;;;;-0.17;80.24;98337.31;5034215;28;20049;-81
2021/01/03 02:03:43;;;;;;;15.03;7.10;;;;;;;-0.04;80.48;98362.78;5033996;28;20045;-81
2021/01/03 02:06:19;;;;;;;11.17;6.93;;;;;;;-0.17;81.08;98348.84;5029244;28;20115;-81
2021/01/03 02:08:51;;;;;;;8.87;5.87;;;;;;;-0.09;81.12;98341.00;5034433;28;20054;-81
2021/01/03 02:11:22;;;;;;;10.70;6.67;;;;;;;-0.10;81.19;98330.44;5025767;28;20068;-81
2021/01/03 02:13:51;;;;;;;11.87;6.93;;;;;;;-0.08;81.49;98344.50;5029545;28;20052;-81
2021/01/03 02:16:23;;;;;;;14.20;7.20;;;;;;;-0.22;82.93;98367.13;5023381;28;20049;-81
2021/01/03 02:18:52;;;;;;;15.57;7.97;;;;;;;-0.37;83.56;98358.63;5033912;28;20144;-81
2021/01/03 02:21:24;;;;;;;13.47;7.33;;;;;;;-0.49;84.16;98346.34;5033970;28;20041;-81
2021/01/03 02:24:01;;;;;;;14.20;7.27;;;;;;;-0.50;85.02;98333.97;5033468;28;20057;-81
2021/01/03 02:26:34;;;;;;;11.80;7.10;;;;;;;-0.47;85.58;98371.94;5026021;28;20501;-80
2021/01/03 02:29:01;;;;;;;14.00;7.80;;;;;;;-0.46;85.92;98368.28;5033055;28;20057;-81
2021/01/03 02:31:32;;;;;;;13.53;7.33;;;;;;;-0.68;86.55;98339.09;5022444;28;20045;-81
2021/01/03 02:34:01;;;;;;;13.17;8.23;;;;;;;-0.65;87.36;98352.19;5034025;28;20480;-81
2021/01/03 02:36:32;;;;;;;15.00;7.83;;;;;;;-0.64;87.45;98373.41;5032277;28;20076;-80
2021/01/03 02:39:14;;;;;;;15.83;8.47;;;;;;;-0.66;87.83;98340.66;5033879;28;20129;-80
2021/01/03 02:41:42;;;;;;;15.57;8.07;;;;;;;-0.67;88.50;98359.50;5018971;28;20048;-81
2021/01/03 02:44:08;;;;;;;15.33;9.03;;;;;;;-0.80;88.45;98347.22;5033092;28;20107;-80
2021/01/03 02:46:37;;;;;;;14.13;7.87;;;;;;;-1.01;89.25;98333.91;5028079;28;20053;-80
2021/01/03 02:49:04;;;;;;;18.30;8.17;;;;;;;-0.91;89.39;98341.94;5030774;28;20403;-80
2021/01/03 02:51:35;;;;;;;16.57;8.30;;;;;;;-0.92;89.35;98340.25;5030008;28;20489;-80
2021/01/03 02:54:01;;;;;;;16.50;9.40;;;;;;;-0.84;89.73;98360.94;5026870;28;20046;-81
2021/01/03 02:56:27;;;;;;;19.67;9.53;;;;;;;-0.99;89.93;98339.94;5032985;28;20071;-80
2021/01/03 02:58:55;;;;;;;17.43;9.73;;;;;;;-0.98;90.15;98354.13;5026038;28;20100;-81
2021/01/03 03:01:21;;;;;;;22.13;10.20;;;;;;;-0.90;89.91;98343.66;5032855;28;20494;-80
2021/01/03 03:03:47;;;;;;;14.97;8.83;;;;;;;-0.90;89.61;98352.50;5032793;28;20057;-81
2021/01/03 03:06:14;;;;;;;20.87;10.80;;;;;;;-0.96;89.92;98341.50;5032750;28;20063;-81
2021/01/03 03:08:41;;;;;;;20.83;8.90;;;;;;;-1.01;89.73;98338.38;5023527;28;20556;-81
2021/01/03 03:11:07;;;;;;;19.83;9.73;;;;;;;-1.00;90.45;98350.75;5032968;28;20050;-81
2021/01/03 03:13:33;;;;;;;15.50;9.23;;;;;;;-1.00;90.78;98351.59;5023739;28;20100;-81
2021/01/03 03:16:01;;;;;;;20.20;10.20;;;;;;;-0.91;90.36;98356.13;5025493;28;20060;-81
2021/01/03 03:18:27;;;;;;;19.53;9.43;;;;;;;-1.07;90.54;98343.28;5027454;28;20042;-81
2021/01/03 03:20:55;;;;;;;16.20;8.70;;;;;;;-1.05;90.55;98340.47;5019783;28;20046;-81
2021/01/03 03:23:22;;;;;;;18.63;8.90;;;;;;;-1.10;90.77;98332.00;5034366;28;20061;-81
2021/01/03 03:25:49;;;;;;;14.90;9.30;;;;;;;-0.99;91.14;98352.44;5028590;28;20062;-81
2021/01/03 03:28:15;;;;;;;23.47;10.07;;;;;;;-1.18;91.15;98332.66;5021750;28;20081;-81
2021/01/03 03:30:42;;;;;;;17.50;9.23;;;;;;;-1.03;90.86;98351.00;5034294;28;20402;-81
2021/01/03 03:33:09;;;;;;;18.63;9.33;;;;;;;-1.27;91.18;98310.28;5034477;28;20103;-81
2021/01/03 03:35:37;;;;;;;18.50;10.27;;;;;;;-1.32;91.57;98304.50;5029949;28;20508;-81
2021/01/03 03:38:04;;;;;;;15.23;6.87;;;;;;;-1.31;91.50;98318.66;5033630;28;20053;-81
2021/01/03 03:40:31;;;;;;;18.13;9.23;;;;;;;-1.24;91.57;98333.19;5033759;28;20056;-81
2021/01/03 03:42:57;;;;;;;22.17;10.83;;;;;;;-1.15;91.68;98319.06;5015800;28;20095;-81
2021/01/03 03:45:24;;;;;;;19.70;10.10;;;;;;;-1.06;91.06;98320.09;5017740;28;20057;-81
2021/01/03 03:47:50;;;;;;;19.73;9.97;;;;;;;-1.10;91.86;98334.66;5041288;28;20044;-81
2021/01/03 03:50:20;;;;;;;21.80;10.17;;;;;;;-1.14;91.62;98327.94;5033698;28;20409;-81
2021/01/03 03:52:46;;;;;;;;;;;;;;;-1.06;91.69;98333.44;5027585;28;20072;-81
2021/01/03 03:55:14;;;;;;;18.67;10.40;;;;;;;-1.17;90.98;98302.34;5022554;28;19927;-81
2021/01/03 03:57:40;;;;;;;19.60;11.23;;;;;;;-1.14;91.52;98320.75;5036047;28;20053;-81
2021/01/03 04:00:10;;;;;;;21.77;11.63;;;;;;;-1.14;91.57;98317.25;5018698;28;20127;-81
2021/01/03 04:02:36;;;;;;;;;;;;;;;-0.98;91.05;98325.63;5027654;28;20501;-81
2021/01/03 04:05:03;;;;;;;21.13;10.53;;;;;;;-1.16;91.67;98304.06;5032065;28;20365;-81
2021/01/03 04:07:30;;;;;;;21.77;10.80;;;;;;;-1.19;91.43;98306.97;5039696;28;20060;-80
2021/01/03 04:09:57;;;;;;;20.93;10.27;;;;;;;-1.02;91.44;98328.66;5041336;28;20058;-80
2021/01/03 04:12:23;;;;;;;18.27;10.40;;;;;;;-1.03;91.55;98327.00;5033743;28;20053;-80
2021/01/03 04:14:49;;;;;;;21.17;10.53;;;;;;;-1.17;91.88;98323.69;5027566;28;20045;-80
2021/01/03 04:17:15;;;;;;;21.00;11.07;;;;;;;-1.29;92.37;98316.75;5014306;28;20050;-80
2021/01/03 04:19:42;;;;;;;22.37;11.30;;;;;;;-1.21;92.21;98306.25;5024621;28;20446;-81
2021/01/03 04:22:08;;;;;;;23.03;11.37;;;;;;;-1.23;91.49;98305.56;5033312;28;20559;-81
2021/01/03 04:24:35;;;;;;;20.87;11.03;;;;;;;-1.12;91.69;98304.63;5040747;28;20044;-81
2021/01/03 04:27:03;;;;;;;20.23;10.73;;;;;;;-1.22;91.55;98306.38;5028425;28;20046;-80
2021/01/03 04:29:29;;;;;;;24.20;11.13;;;;;;;-1.25;91.90;98311.00;5014286;28;20541;-80
2021/01/03 04:31:57;;;;;;;25.97;12.07;;;;;;;-1.16;91.57;98313.84;5030402;28;20045;-81
2021/01/03 04:34:25;;;;;;;23.93;11.17;;;;;;;-1.29;92.07;98308.75;5013722;28;20054;-80
2021/01/03 04:36:52;;;;;;;19.23;9.97;;;;;;;-1.29;92.37;98308.75;5031083;28;20600;-80
2021/01/03 04:39:19;;;;;;;20.90;11.03;;;;;;;-1.29;92.08;98298.06;5033290;28;20049;-80
2021/01/03 04:41:48;;;;;;;21.50;10.20;;;;;;;-1.14;91.85;98320.75;5030539;28;20053;-80
2021/01/03 04:44:20;;;;;;;23.10;11.55;;;;;;;-1.08;91.62;98330.91;5032443;28;20061;-80
2021/01/03 04:46:48;;;;;;;19.23;10.40;;;;;;;-1.35;91.94;98299.44;5032926;28;20049;-80
2021/01/03 04:49:26;;;;;;;21.50;12.33;;;;;;;-1.17;91.76;98323.69;5021338;28;20108;-80
2021/01/03 04:52:30;;;;;;;24.63;11.07;;;;;;;-1.05;91.66;98327.13;5014234;28;20068;-80
2021/01/03 04:55:18;;;;;;;21.30;10.97;;;;;;;-1.27;91.49;98307.63;5005326;28;20144;-80
2021/01/03 04:57:56;;;;;;;28.87;12.37;;;;;;;-1.19;91.94;98319.47;5033105;28;20069;-80
2021/01/03 05:00:26;;;;;;;24.97;11.63;;;;;;;-1.18;91.72;98323.81;5013248;28;20084;-79
2021/01/03 05:03:15;;;;;;;22.33;10.27;;;;;;;-1.14;91.61;98334.09;5017172;28;20053;-80
2021/01/03 05:05:47;;;;;;;21.40;10.43;;;;;;;-1.23;91.70;98332.22;5013363;28;20061;-80
2021/01/03 05:08:33;;;;;;;26.57;12.80;;;;;;;-1.12;91.83;98329.47;5018180;28;20111;-79
2021/01/03 05:11:04;;;;;;;21.40;9.83;;;;;;;-1.05;92.22;98339.59;5032276;28;20058;-79
2021/01/03 05:13:44;;;;;;;22.03;11.20;;;;;;;-1.12;91.84;98345.47;5026091;28;20552;-80
2021/01/03 05:16:11;;;;;;;23.30;11.48;;;;;;;-1.22;92.06;98320.56;5019482;28;20504;-80
2021/01/03 05:18:37;;;;;;;24.73;12.87;;;;;;;-1.24;91.45;98327.84;5013004;28;20505;-80
2021/01/03 05:21:06;;;;;;;24.43;12.70;;;;;;;-1.23;91.59;98310.03;5013032;28;20061;-80
2021/01/03 05:23:34;;;;;;;24.35;11.45;;;;;;;-1.08;91.50;98338.91;5028790;28;20131;-80
2021/01/03 05:26:02;;;;;;;19.03;9.27;;;;;;;-1.24;92.17;98335.84;5013390;28;20092;-80
2021/01/03 05:28:30;;;;;;;25.53;12.83;;;;;;;-1.21;92.22;98340.09;5032790;28;20048;-81
2021/01/03 05:31:13;;;;;;;25.20;12.70;;;;;;;-1.32;92.23;98317.00;5021925;28;20132;-81
2021/01/03 05:33:50;;;;;;;25.33;11.40;;;;;;;-1.34;92.15;98325.13;5026815;28;20053;-81
2021/01/03 05:36:26;;;;;;;22.13;11.70;;;;;;;-1.22;92.58;98346.38;5027829;28;20046;-82
2021/01/03 05:38:53;;;;;;;25.77;13.77;;;;;;;-1.07;92.25;98353.94;5035818;28;20048;-82
2021/01/03 05:41:27;;;;;;;26.60;13.47;;;;;;;-1.20;91.68;98323.94;5036089;28;20159;-82
2021/01/03 05:43:56;;;;;;;25.90;12.83;;;;;;;-1.18;91.70;98335.31;5033169;28;20046;-82
2021/01/03 05:46:30;;;;;;;28.27;12.67;;;;;;;-1.03;92.27;98359.03;5019788;28;20045;-82
2021/01/03 05:49:01;;;;;;;22.73;11.67;;;;;;;-1.08;91.75;98352.25;5024201;28;20054;-83
2021/01/03 05:51:38;;;;;;;23.97;11.63;;;;;;;-1.30;92.29;98334.53;5024965;28;20050;-83
2021/01/03 05:54:07;;;;;;;24.47;12.57;;;;;;;-1.14;92.23;98343.94;5033289;28;20053;-83
2021/01/03 05:56:36;;;;;;;23.83;12.07;;;;;;;-1.23;92.08;98332.22;5025177;28;20055;-83
2021/01/03 05:59:02;;;;;;;25.67;11.90;;;;;;;-1.14;92.35;98347.44;5036883;28;20049;-82
2021/01/03 06:01:40;;;;;;;26.60;12.87;;;;;;;-1.11;92.30;98341.84;5031026;28;20053;-83
2021/01/03 06:04:10;;;;;;;24.77;13.53;;;;;;;-0.95;91.38;98353.84;5047565;28;20052;-83
2021/01/03 06:07:00;;;;;;;25.27;13.37;;;;;;;-1.02;91.78;98347.34;5052020;28;20046;-84
2021/01/03 06:09:36;;;;;;;28.88;13.07;;;;;;;-1.12;91.84;98344.63;5035404;28;20060;-84
2021/01/03 06:12:08;;;;;;;27.53;13.73;;;;;;;-1.23;91.64;98337.56;5035530;28;20054;-84
2021/01/03 06:14:35;;;;;;;28.27;12.67;;;;;;;-1.08;92.12;98367.41;5034872;28;20045;-84
2021/01/03 06:17:16;;;;;;;22.43;11.77;;;;;;;-1.27;91.94;98328.94;5036364;28;20052;-84
2021/01/03 06:19:48;;;;;;;23.57;11.60;;;;;;;-1.11;91.43;98346.34;5049272;28;20057;-84
2021/01/03 06:22:32;;;;;;;24.10;12.10;;;;;;;-1.09;91.72;98353.22;5028476;28;20132;-84
2021/01/03 06:25:00;;;;;;;22.73;12.20;;;;;;;-0.99;92.12;98366.63;5019675;28;20049;-83
2021/01/03 06:27:34;;;;;;;23.43;11.47;;;;;;;-1.31;91.93;98332.00;5022341;28;20059;-83
2021/01/03 06:30:07;;;;;;;25.67;13.27;;;;;;;-0.98;92.09;98359.44;5019404;28;20111;-84
2021/01/03 06:33:15;;;;;;;23.47;12.53;;;;;;;-0.93;91.73;98357.25;5025154;28;20045;-84
2021/01/03 06:35:49;;;;;;;30.87;12.73;;;;;;;-1.20;92.10;98331.97;4979096;28;20061;-83
2021/01/03 06:38:39;;;;;;;26.50;13.43;;;;;;;-1.12;92.10;98341.97;5029351;28;20049;-83
2021/01/03 06:41:13;;;;;;;23.73;12.83;;;;;;;-0.99;92.15;98349.78;5019351;28;20054;-83
2021/01/03 06:44:07;;;;;;;27.40;14.17;;;;;;;-1.08;92.09;98343.41;5027548;28;20041;-83
2021/01/03 06:47:09;;;;;;;29.30;14.03;;;;;;;-1.08;92.31;98344.25;5035771;28;20041;-82
2021/01/03 06:50:10;;;;;;;25.23;12.70;;;;;;;-0.99;91.88;98341.78;5014121;28;20388;-82
2021/01/03 06:52:58;;;;;;;27.23;13.23;;;;;;;-1.27;92.03;98320.13;5029646;28;20115;-82
2021/01/03 06:56:03;;;;;;;25.63;12.23;;;;;;;-1.05;92.11;98350.28;5016273;28;20138;-82
2021/01/03 06:59:12;;;;;;;23.33;11.60;;;;;;;-1.09;92.16;98355.03;5011780;28;20061;-81
2021/01/03 07:01:40;;;;;;;29.23;13.20;;;;;;;-1.04;91.94;98351.97;5019489;28;20933;-80
2021/01/03 07:04:13;;;;;;;21.67;12.00;;;;;;;-1.19;91.73;98341.66;5026085;28;20049;-81
2021/01/03 07:06:40;;;;;;;26.70;12.37;;;;;;;-1.15;92.08;98340.41;5031602;28;20060;-81
2021/01/03 07:09:10;;;;;;;24.70;11.57;;;;;;;-1.17;92.21;98344.19;5034296;28;20049;-81
2021/01/03 07:11:46;;;;;;;19.83;10.32;;;;;;;-1.12;91.91;98336.63;5033581;28;20045;-81
2021/01/03 07:14:40;;;;;;;19.77;10.60;;;;;;;-1.03;91.98;98345.69;5044026;28;20040;-81
2021/01/03 07:17:13;;;;;;;19.33;10.20;;;;;;;-1.11;91.71;98341.00;5023038;28;20058;-81
2021/01/03 07:19:44;;;;;;;22.67;11.07;;;;;;;-1.05;91.85;98356.47;5015208;28;20417;-80
2021/01/03 07:22:15;;;;;;;23.87;12.13;;;;;;;-1.07;91.83;98342.41;5017014;28;20142;-80
2021/01/03 07:25:07;;;;;;;26.80;11.57;;;;;;;-0.96;91.67;98358.34;5033982;28;20497;-79
2021/01/03 07:27:37;;;;;;;31.23;14.97;;;;;;;-0.90;91.10;98368.50;5016938;28;20054;-79
2021/01/03 07:30:28;;;;;;;27.73;13.00;;;;;;;-0.87;90.85;98356.72;5023439;28;20140;-80
2021/01/03 07:33:02;;;;;;;20.83;10.90;;;;;;;-0.98;91.52;98354.13;5031078;28;20481;-80
2021/01/03 07:35:33;;;;;;;22.87;13.23;;;;;;;-1.07;90.83;98339.75;5031143;28;20041;-80
2021/01/03 07:38:21;;;;;;;22.93;12.30;;;;;;;-1.09;91.28;98337.19;5023473;28;20046;-81
2021/01/03 07:40:51;;;;;;;27.03;13.53;;;;;;;-0.90;90.45;98365.00;5023347;28;20103;-81
2021/01/03 07:43:19;;;;;;;25.57;13.70;;;;;;;-0.98;90.83;98348.78;5030256;28;20045;-81
2021/01/03 07:45:47;;;;;;;25.33;14.03;;;;;;;-0.99;90.70;98353.28;5022503;28;20049;-81
2021/01/03 07:48:36;;;;;;;28.13;14.50;;;;;;;-0.95;90.67;98345.84;5018642;28;20054;-81
2021/01/03 07:51:04;;;;;;;21.17;12.13;;;;;;;-0.77;90.37;98376.31;5025676;28;20123;-81
2021/01/03 07:53:34;;;;;;;18.67;10.80;;;;;;;-0.88;90.89;98348.84;5022321;28;20050;-81
2021/01/03 07:56:29;;;;;;;;;;;;;;;-0.65;90.11;98382.38;5023757;28;20485;-81
2021/01/03 07:58:58;;;;;;;21.63;10.67;;;;;;;-0.66;89.39;98379.84;5009398;28;19921;-82
2021/01/03 08:01:37;;;;;;;30.33;14.02;;;;;;;-0.57;89.42;98387.91;5034036;28;20042;-81
2021/01/03 08:04:10;;;;;;;33.20;13.93;;;;;;;-0.55;89.53;98371.75;5027309;28;20052;-82
2021/01/03 08:06:36;;;;;;;27.90;13.90;;;;;;;-0.57;89.56;98387.91;5016181;28;20103;-82
2021/01/03 08:09:03;;;;;;;25.63;13.10;;;;;;;-0.42;89.42;98392.88;5025783;28;20131;-82
2021/01/03 08:11:36;;;;;;;19.47;9.90;;;;;;;-0.58;88.66;98354.19;5026302;28;20140;-83
2021/01/03 08:14:06;;;;;;;22.67;10.63;;;;;;;-0.48;89.07;98372.94;5019135;28;20137;-83
2021/01/03 08:16:36;;;;;;;21.53;11.93;;;;;;;-0.41;88.74;98384.75;5029902;28;20482;-83
2021/01/03 08:19:05;;;;;;;26.65;11.82;;;;;;;-0.35;88.98;98367.34;5026943;28;20057;-83
2021/01/03 08:21:33;;;;;;;22.00;11.63;;;;;;;-0.40;89.13;98366.91;5026097;28;20490;-83
2021/01/03 08:24:05;;;;;;;25.27;13.13;;;;;;;-0.26;88.96;98387.06;5034139;28;20719;-83
2021/01/03 08:26:38;;;;;;;30.13;13.73;;;;;;;-0.31;88.54;98386.63;5032989;28;20418;-83
2021/01/03 08:29:14;;;;;;;29.63;13.83;;;;;;;-0.30;88.80;98385.63;5032083;28;20064;-83
2021/01/03 08:31:47;;;;;;;27.23;12.67;;;;;;;-0.36;88.72;98390.53;5031511;28;20446;-83
2021/01/03 08:34:17;;;;;;;29.23;13.77;;;;;;;-0.29;88.99;98387.31;5031912;28;20053;-83
2021/01/03 08:36:44;;;;;;;33.03;12.97;;;;;;;-0.47;89.07;98365.75;5032155;28;20072;-83
2021/01/03 08:39:13;;;;;;;31.03;13.67;;;;;;;-0.24;88.77;98409.13;5033201;28;20053;-83
2021/01/03 08:41:49;;;;;;;29.63;13.35;;;;;;;-0.29;88.63;98388.16;5018040;28;20056;-83
2021/01/03 08:44:21;;;;;;;33.00;13.23;;;;;;;-0.29;87.98;98380.16;5021086;28;20068;-83
2021/01/03 08:46:48;;;;;;;27.83;13.20;;;;;;;-0.16;87.74;98387.94;5030381;28;20049;-82
2021/01/03 08:49:15;;;;;;;31.37;14.20;;;;;;;-0.18;88.02;98389.91;5033283;28;20107;-82
2021/01/03 08:51:41;;;;;;;30.47;13.67;;;;;;;-0.10;88.04;98400.75;5032458;28;20476;-82
2021/01/03 08:54:10;;;;;;;29.03;12.53;;;;;;;-0.11;87.90;98393.72;5031269;28;20648;-82
2021/01/03 08:56:44;;;;;;;25.85;12.80;;;;;;;-0.24;87.87;98399.31;5032309;28;20050;-82
2021/01/03 08:59:13;;;;;;;27.77;12.63;;;;;;;-0.10;87.96;98410.59;5030975;28;20054;-83
2021/01/03 09:01:43;;;;;;;22.15;12.00;;;;;;;-0.12;88.01;98409.88;5031087;28;20482;-83
2021/01/03 09:04:14;;;;;;;26.58;12.93;;;;;;;-0.09;87.91;98413.13;5031207;28;20483;-83
2021/01/03 09:06:41;;;;;;;28.50;12.70;;;;;;;-0.14;88.04;98401.16;5031877;28;20049;-83
2021/01/03 09:09:09;;;;;;;23.58;12.35;;;;;;;0.01;87.54;98420.34;5034494;28;20053;-83
2021/01/03 09:11:39;;;;;;;25.03;12.97;;;;;;;-0.06;87.94;98425.34;5034976;28;20473;-83
2021/01/03 09:14:13;;;;;;;;;;;;;;;-0.10;87.95;98422.13;5036499;28;20451;-83
2021/01/03 09:16:50;;;;;;;28.53;11.27;;;;;;;-0.22;87.91;98413.34;5031035;28;19921;-83
2021/01/03 09:19:22;;;;;;;21.17;11.47;;;;;;;-0.12;88.14;98433.91;5035664;28;20055;-83
2021/01/03 09:21:52;;;;;;;25.07;12.10;;;;;;;-0.09;87.71;98405.13;5034790;28;20057;-83
2021/01/03 09:24:22;;;;;;;23.40;12.30;;;;;;;0.00;87.70;98422.16;5033591;28;20049;-84
2021/01/03 09:26:49;;;;;;;23.27;11.82;;;;;;;0.00;88.11;98427.53;5036437;28;20053;-84
2021/01/03 09:29:23;;;;;;;23.40;11.43;;;;;;;-0.17;87.32;98410.28;5035195;28;20060;-84
2021/01/03 09:31:58;;;;;;;20.60;9.73;;;;;;;-0.08;87.26;98412.13;5036235;28;20057;-83
2021/01/03 09:34:35;;;;;;;21.87;10.07;;;;;;;0.09;87.32;98434.72;5030531;28;20472;-84
2021/01/03 09:37:11;;;;;;;23.33;11.47;;;;;;;0.14;86.81;98434.31;5035236;28;20501;-84
2021/01/03 09:39:53;;;;;;;19.87;10.67;;;;;;;0.28;86.51;98435.72;5034308;28;20105;-83
2021/01/03 09:42:42;;;;;;;19.73;10.63;;;;;;;0.37;86.53;98450.94;5033952;28;20147;-84
2021/01/03 09:45:28;;;;;;;17.25;9.25;;;;;;;0.26;85.90;98417.16;5020809;28;20045;-84
2021/01/03 09:47:57;;;;;;;26.07;10.97;;;;;;;0.38;86.65;98441.97;5031031;28;20128;-85
2021/01/03 09:50:33;;;;;;;18.90;11.00;;;;;;;0.38;85.50;98431.25;5030967;28;20130;-84
2021/01/03 09:53:09;;;;;;;21.57;10.53;;;;;;;0.48;86.31;98434.81;5034928;28;20504;-84
2021/01/03 09:55:41;;;;;;;20.30;10.13;;;;;;;0.53;85.56;98432.53;5035043;28;20045;-84
2021/01/03 09:58:09;;;;;;;18.15;10.10;;;;;;;0.68;84.77;98432.97;5033229;28;20060;-85
2021/01/03 10:00:53;;;;;;;21.67;10.82;;;;;;;0.86;85.17;98446.50;5035164;28;20060;-85
2021/01/03 10:03:25;;;;;;;19.95;10.45;;;;;;;0.87;83.94;98441.97;5024752;28;20460;-85
2021/01/03 10:05:53;;;;;;;23.50;11.15;;;;;;;0.86;84.09;98434.97;5034895;28;20053;-85
2021/01/03 10:08:26;;;;;;;19.63;10.98;;;;;;;0.71;83.91;98418.47;5034240;28;20076;-85
2021/01/03 10:10:57;;;;;;;27.38;12.93;;;;;;;0.65;83.89;98403.84;5035011;28;20424;-85
2021/01/03 10:13:26;;;;;;;23.17;12.35;;;;;;;0.81;84.02;98413.13;5035444;28;20215;-86
2021/01/03 10:15:54;;;;;;;26.20;13.63;;;;;;;0.80;84.26;98423.00;5015234;28;20050;-86
2021/01/03 10:18:39;;;;;;;32.22;15.20;;;;;;;1.01;83.85;98428.19;5027053;28;20045;-87
2021/01/03 10:21:26;;;;;;;29.75;15.13;;;;;;;0.92;83.62;98415.66;5041723;28;20059;-88
2021/01/03 10:23:57;;;;;;;25.80;13.35;;;;;;;0.69;83.73;98407.94;5036459;28;20049;-88
2021/01/03 10:26:34;;;;;;;20.30;11.20;;;;;;;0.82;83.61;98412.97;5035484;28;20049;-88
2021/01/03 10:29:01;;;;;;;22.45;10.82;;;;;;;0.81;84.08;98407.75;5035277;28;20103;-87
2021/01/03 10:31:39;;;;;;;18.75;10.20;;;;;;;1.03;83.54;98444.09;5035469;28;20151;-88
2021/01/03 10:34:07;;;;;;;18.55;10.00;;;;;;;0.93;83.06;98413.81;5035289;28;20096;-87
2021/01/03 10:36:34;;;;;;;19.15;9.07;;;;;;;0.95;84.37;98442.13;5034979;28;20037;-87
2021/01/03 10:39:02;;;;;;;16.33;9.68;;;;;;;0.98;84.70;98447.22;5034904;28;20049;-86
2021/01/03 10:41:35;;;;;;;19.55;9.38;;;;;;;1.05;83.67;98437.63;5036311;28;20057;-87
2021/01/03 10:44:06;;;;;;;18.35;9.38;;;;;;;1.04;83.22;98417.19;5035469;28;20053;-86
2021/01/03 10:46:35;;;;;;;18.75;9.23;;;;;;;0.83;83.38;98395.94;5033832;28;20137;-85
2021/01/03 10:49:02;;;;;;;17.08;9.25;;;;;;;1.07;83.43;98429.47;5033942;28;20063;-85
2021/01/03 10:51:31;;;;;;;19.50;9.38;;;;;;;1.29;83.29;98427.44;5034068;28;20057;-85
2021/01/03 10:53:58;;;;;;;19.55;10.85;;;;;;;1.52;82.24;98426.13;5034104;28;20417;-84
2021/01/03 10:56:25;;;;;;;18.85;9.75;;;;;;;1.33;81.60;98404.75;5033044;28;20052;-84
2021/01/03 10:58:52;;;;;;;20.25;8.77;;;;;;;1.26;82.10;98428.56;5033643;28;20045;-84
2021/01/03 11:01:18;;;;;;;16.23;9.07;;;;;;;1.33;82.74;98427.00;5032944;28;20053;-84
2021/01/03 11:03:45;;;;;;;15.15;9.13;;;;;;;1.40;82.03;98420.09;5024611;28;20094;-84
2021/01/03 11:06:11;;;;;;;18.08;9.77;;;;;;;1.40;81.53;98432.63;5030155;28;20065;-84
2021/01/03 11:08:39;;;;;;;19.00;9.52;;;;;;;1.34;82.33;98404.59;5033573;28;20056;-84
2021/01/03 11:11:05;;;;;;;16.23;9.30;;;;;;;1.18;81.71;98405.19;5033484;28;20060;-84
2021/01/03 11:13:32;;;;;;;19.23;9.95;;;;;;;1.13;82.41;98420.84;5033412;28;20103;-84
2021/01/03 11:15:58;;;;;;;17.30;10.18;;;;;;;1.02;82.56;98421.00;5032715;28;20050;-84
2021/01/03 11:18:30;;;;;;;22.40;10.73;;;;;;;1.17;82.86;98424.91;5018448;28;20077;-83
2021/01/03 11:24:45;;;;;;;;;;;;;;;;;;;;;
2021/01/03 11:27:14;;;;;;;14.30;9.10;;;;;;;1.01;83.19;98433.53;5050076;28;20382;-83
2021/01/03 11:29:40;;;;;;;16.38;9.25;;;;;;;0.88;83.29;98422.28;5053693;28;20056;-80
2021/01/03 11:32:11;;;;;;;21.23;11.25;;;;;;;0.95;83.34;98430.56;5023298;28;20099;-80
2021/01/03 11:34:38;;;;;;;18.98;10.82;;;;;;;0.82;84.53;98421.00;5028192;28;21439;-80
2021/01/03 11:37:07;;;;;;;17.05;9.65;;;;;;;0.75;84.50;98419.88;5030460;28;20049;-80
2021/01/03 11:39:35;;;;;;;21.13;11.10;;;;;;;0.70;85.07;98414.09;5034208;28;20061;-81
2021/01/03 11:42:04;;;;;;;20.67;11.23;;;;;;;0.65;84.38;98397.66;5033767;28;20502;-80
2021/01/03 11:44:30;;;;;;;23.65;11.52;;;;;;;0.68;85.01;98405.38;5031183;28;20099;-80
2021/01/03 11:47:00;;;;;;;19.10;10.23;;;;;;;0.69;84.40;98409.72;5033334;28;20061;-81
2021/01/03 11:49:27;;;;;;;18.88;11.05;;;;;;;0.67;84.85;98406.38;5034348;28;20068;-81